Time;durP1;ratioP1;P1;durP2;ratioP2;P2;SDS_P1;SDS_P2;PMS_P1;PMS_P2;Temp;Humidity;BMP_temperature;BMP_pressure;BME280_temperature;BME280_humidity;BME280_pressure;Samples;Min_cycle;Max_cycle;Signal;HPM_P1;HPM_P2
2023/06/16 00:00:11;;;;;;;0.10;0.10;;;16.40;88.90;;;;;;4830866;29;20124;-90
2023/06/16 00:02:41;;;;;;;0.20;0.20;;;16.40;89.20;;;;;;4818519;29;20046;-91
2023/06/16 00:05:09;;;;;;;0.20;0.20;;;16.30;89.70;;;;;;4840594;29;20077;-90
2023/06/16 00:07:36;;;;;;;0.10;0.10;;;16.30;90.00;;;;;;4826593;29;20178;-91
2023/06/16 00:10:04;;;;;;;0.20;0.20;;;16.30;90.10;;;;;;4842649;29;20511;-91
2023/06/16 00:12:30;;;;;;;0.10;0.10;;;16.20;90.30;;;;;;4816244;29;20054;-90
2023/06/16 00:14:56;;;;;;;0.20;0.20;;;16.20;90.40;;;;;;4841390;29;20570;-91
2023/06/16 00:17:23;;;;;;;0.17;0.17;;;16.20;90.60;;;;;;4841018;29;20125;-91
2023/06/16 00:19:49;;;;;;;0.10;0.10;;;16.20;90.70;;;;;;4809502;29;20065;-91
2023/06/16 00:22:15;;;;;;;0.20;0.20;;;16.20;90.80;;;;;;4823252;29;20052;-90
2023/06/16 00:24:41;;;;;;;0.20;0.20;;;16.10;90.80;;;;;;4829341;29;20034;-91
2023/06/16 00:27:07;;;;;;;0.13;0.13;;;16.20;91.00;;;;;;4845388;29;20046;-91
2023/06/16 00:29:32;;;;;;;0.20;0.20;;;16.20;91.10;;;;;;4821127;29;20053;-91
2023/06/16 00:31:58;;;;;;;0.20;0.20;;;16.20;91.20;;;;;;4821363;29;20044;-91
2023/06/16 00:34:24;;;;;;;0.20;0.20;;;16.20;91.20;;;;;;4838361;29;20483;-91
2023/06/16 00:36:50;;;;;;;0.20;0.20;;;16.10;91.20;;;;;;4825448;29;20140;-91
2023/06/16 00:39:15;;;;;;;0.20;0.20;;;16.10;91.30;;;;;;4821027;29;20070;-91
2023/06/16 00:41:41;;;;;;;0.20;0.20;;;16.20;91.50;;;;;;4827681;29;20109;-92
2023/06/16 00:44:06;;;;;;;0.20;0.20;;;16.20;91.50;;;;;;4825115;29;20122;-91
2023/06/16 00:46:35;;;;;;;0.20;0.20;;;16.70;91.70;;;;;;4825299;29;20456;-91
2023/06/16 00:49:02;;;;;;;0.10;0.10;;;16.20;91.70;;;;;;4838574;29;20057;-90
2023/06/16 00:51:30;;;;;;;0.20;0.20;;;16.20;91.70;;;;;;4816072;29;20050;-91
2023/06/16 00:53:57;;;;;;;0.20;0.20;;;16.20;91.80;;;;;;4827280;29;20054;-91
2023/06/16 00:56:23;;;;;;;0.20;0.20;;;16.10;91.90;;;;;;4827721;29;20049;-91
2023/06/16 00:58:51;;;;;;;0.10;0.10;;;16.10;91.90;;;;;;4836271;29;20329;-91
2023/06/16 01:01:17;;;;;;;0.20;0.20;;;16.10;92.00;;;;;;4826446;29;20502;-91
2023/06/16 01:03:44;;;;;;;0.10;0.10;;;16.10;92.10;;;;;;4827096;29;20049;-91
2023/06/16 01:06:28;;;;;;;0.20;0.20;;;16.10;92.10;;;;;;4823307;29;20133;-90
2023/06/16 01:09:11;;;;;;;0.20;0.20;;;16.10;92.20;;;;;;4844806;29;20073;-90
2023/06/16 01:12:09;;;;;;;0.20;0.20;;;16.00;92.20;;;;;;4833288;29;20576;-91
2023/06/16 01:14:47;;;;;;;0.10;0.10;;;16.00;92.20;;;;;;4823156;29;20118;-91
2023/06/16 01:17:15;;;;;;;0.20;0.20;;;16.00;92.30;;;;;;4825866;29;20499;-91
2023/06/16 01:19:50;;;;;;;0.10;0.10;;;16.00;92.40;;;;;;4824529;29;20054;-91
2023/06/16 01:22:56;;;;;;;0.20;0.20;;;15.90;92.50;;;;;;4829064;29;20049;-91
2023/06/16 01:25:24;;;;;;;0.20;0.20;;;15.90;92.50;;;;;;4824064;29;20058;-91
2023/06/16 01:27:52;;;;;;;0.20;0.20;;;15.90;92.50;;;;;;4824567;29;20500;-91
2023/06/16 01:30:22;;;;;;;0.17;0.17;;;15.90;92.60;;;;;;4839978;29;20057;-91
2023/06/16 01:32:51;;;;;;;0.20;0.20;;;15.90;92.50;;;;;;4842412;29;20494;-91
2023/06/16 01:35:18;;;;;;;0.17;0.17;;;15.90;92.60;;;;;;4841832;29;20145;-91
2023/06/16 01:37:44;;;;;;;0.20;0.20;;;15.80;92.60;;;;;;4842246;29;20045;-91
2023/06/16 01:40:12;;;;;;;0.20;0.20;;;15.80;92.50;;;;;;4842572;29;20041;-91
2023/06/16 01:42:38;;;;;;;0.10;0.10;;;15.80;92.60;;;;;;4829896;29;20110;-91
2023/06/16 01:45:05;;;;;;;0.17;0.17;;;15.80;92.60;;;;;;4842676;29;20391;-91
2023/06/16 01:47:30;;;;;;;0.20;0.20;;;15.80;92.70;;;;;;4841422;29;20046;-91
2023/06/16 01:49:57;;;;;;;0.10;0.10;;;15.70;92.60;;;;;;4829909;29;20609;-90
2023/06/16 01:52:22;;;;;;;0.10;0.10;;;15.70;92.70;;;;;;4830075;29;20048;-91
2023/06/16 01:54:48;;;;;;;0.17;0.17;;;15.70;92.80;;;;;;4839425;29;20073;-91
2023/06/16 01:57:14;;;;;;;0.20;0.20;;;15.60;92.80;;;;;;4822018;29;20038;-91
2023/06/16 01:59:39;;;;;;;0.20;0.20;;;16.10;92.90;;;;;;4838856;29;20050;-91
2023/06/16 02:02:12;;;;;;;0.20;0.20;;;15.60;92.90;;;;;;4815210;29;20483;-91
2023/06/16 02:04:42;;;;;;;0.10;0.10;;;15.60;93.00;;;;;;4818482;29;20110;-91
2023/06/16 02:07:18;;;;;;;0.17;0.17;;;15.50;93.00;;;;;;4850362;29;20041;-92
2023/06/16 02:09:46;;;;;;;0.10;0.10;;;15.50;93.00;;;;;;4846108;29;20042;-91
2023/06/16 02:12:13;;;;;;;0.10;0.10;;;15.70;93.20;;;;;;4845883;29;20230;-91
2023/06/16 02:14:39;;;;;;;0.10;0.10;;;15.40;93.10;;;;;;4845610;29;20110;-91
2023/06/16 02:17:07;;;;;;;0.10;0.10;;;15.40;93.10;;;;;;4816559;29;20054;-91
2023/06/16 02:19:33;;;;;;;0.20;0.20;;;15.40;93.20;;;;;;4820070;29;20137;-91
2023/06/16 02:22:00;;;;;;;0.20;0.20;;;15.20;93.30;;;;;;4827675;29;20053;-91
2023/06/16 02:24:26;;;;;;;0.20;0.20;;;15.30;93.40;;;;;;4845242;29;20049;-91
2023/06/16 02:26:52;;;;;;;0.20;0.20;;;15.60;93.50;;;;;;4827181;29;20038;-91
2023/06/16 02:29:18;;;;;;;0.20;0.20;;;15.20;93.40;;;;;;4823816;29;20235;-92
2023/06/16 02:31:47;;;;;;;0.10;0.10;;;15.20;93.80;;;;;;4827504;29;20056;-91
2023/06/16 02:34:13;;;;;;;0.20;0.20;;;15.30;93.50;;;;;;4827890;29;20129;-92
2023/06/16 02:36:39;;;;;;;0.10;0.10;;;15.20;93.60;;;;;;4844376;29;20057;-91
2023/06/16 02:39:05;;;;;;;0.20;0.20;;;15.20;93.70;;;;;;4849917;29;20050;-91
2023/06/16 02:41:31;;;;;;;0.20;0.20;;;15.20;93.80;;;;;;4832142;29;20376;-90
2023/06/16 02:43:57;;;;;;;0.20;0.20;;;15.20;93.90;;;;;;4838019;29;20046;-91
2023/06/16 02:46:23;;;;;;;0.10;0.10;;;15.20;93.90;;;;;;4838416;29;20162;-91
2023/06/16 02:48:48;;;;;;;0.20;0.20;;;15.20;94.00;;;;;;4844471;29;20046;-91
2023/06/16 02:51:14;;;;;;;0.15;0.15;;;15.20;94.10;;;;;;4826559;29;20049;-91
2023/06/16 02:53:40;;;;;;;0.20;0.20;;;15.10;94.10;;;;;;4825894;29;20050;-91
2023/06/16 02:56:07;;;;;;;0.20;0.20;;;15.10;94.30;;;;;;4818443;29;20598;-91
2023/06/16 02:58:32;;;;;;;0.10;0.10;;;15.10;94.40;;;;;;4836626;29;20060;-91
2023/06/16 03:00:58;;;;;;;0.20;0.20;;;15.10;94.50;;;;;;4826377;29;20823;-91
2023/06/16 03:03:25;;;;;;;0.20;0.20;;;15.20;94.60;;;;;;4843363;29;20046;-90
2023/06/16 03:05:51;;;;;;;0.20;0.20;;;15.00;94.70;;;;;;4844265;29;20196;-91
2023/06/16 03:08:16;;;;;;;0.20;0.20;;;15.00;94.80;;;;;;4844505;29;20093;-91
2023/06/16 03:10:42;;;;;;;0.20;0.20;;;14.90;94.90;;;;;;4844972;29;20333;-91
2023/06/16 03:13:08;;;;;;;0.20;0.20;;;14.90;95.00;;;;;;4826618;29;20053;-91
2023/06/16 03:15:36;;;;;;;0.10;0.10;;;15.00;95.10;;;;;;4837872;29;20046;-91
2023/06/16 03:18:02;;;;;;;0.20;0.20;;;15.00;95.20;;;;;;4830191;29;20372;-91
2023/06/16 03:20:27;;;;;;;0.20;0.20;;;15.00;95.30;;;;;;4832396;29;20058;-90
2023/06/16 03:22:53;;;;;;;0.20;0.20;;;15.50;95.60;;;;;;4836015;29;20075;-92
2023/06/16 03:25:21;;;;;;;0.20;0.20;;;14.90;95.60;;;;;;4844107;29;20085;-90
2023/06/16 03:27:46;;;;;;;0.10;0.10;;;14.90;95.70;;;;;;4844477;29;20554;-90
2023/06/16 03:30:12;;;;;;;0.10;0.10;;;14.90;95.80;;;;;;4822338;29;20133;-91
2023/06/16 03:32:38;;;;;;;0.20;0.20;;;14.90;95.90;;;;;;4844648;29;20164;-91
2023/06/16 03:35:06;;;;;;;0.20;0.20;;;14.90;96.10;;;;;;4827897;29;20054;-91
2023/06/16 03:37:32;;;;;;;0.17;0.17;;;14.90;96.20;;;;;;4837220;29;20118;-91
2023/06/16 03:40:05;;;;;;;0.13;0.13;;;14.90;96.20;;;;;;4827459;29;20046;-91
2023/06/16 03:42:32;;;;;;;0.25;0.25;;;14.80;96.50;;;;;;4819453;29;20503;-91
2023/06/16 03:44:58;;;;;;;0.13;0.13;;;14.90;96.70;;;;;;4841110;29;20106;-91
2023/06/16 03:47:24;;;;;;;0.10;0.10;;;14.90;96.80;;;;;;4836180;29;20046;-91
2023/06/16 03:49:50;;;;;;;0.10;0.10;;;14.90;96.90;;;;;;4836175;29;20054;-90
2023/06/16 03:52:16;;;;;;;0.17;0.17;;;14.90;97.00;;;;;;4842960;29;20090;-92
2023/06/16 03:54:41;;;;;;;0.20;0.20;;;14.90;97.00;;;;;;4843816;29;20050;-91
2023/06/16 03:57:07;;;;;;;0.20;0.20;;;15.00;97.20;;;;;;4827794;29;20092;-91
2023/06/16 03:59:32;;;;;;;0.15;0.15;;;15.00;97.30;;;;;;4847423;29;20046;-90
2023/06/16 04:02:06;;;;;;;0.10;0.10;;;15.00;97.40;;;;;;4837235;29;20129;-91
2023/06/16 04:04:32;;;;;;;0.20;0.20;;;15.00;97.50;;;;;;4829410;29;20046;-91
2023/06/16 04:06:58;;;;;;;0.17;0.17;;;15.00;97.60;;;;;;4829800;29;20057;-91
2023/06/16 04:09:25;;;;;;;0.20;0.20;;;15.00;97.70;;;;;;4838959;29;20491;-91
2023/06/16 04:11:51;;;;;;;0.20;0.20;;;15.00;97.80;;;;;;4814597;29;20138;-91
2023/06/16 04:14:16;;;;;;;0.20;0.20;;;15.10;97.80;;;;;;4841474;29;20045;-91
2023/06/16 04:16:42;;;;;;;0.20;0.20;;;15.10;97.90;;;;;;4843191;29;20134;-91
2023/06/16 04:19:09;;;;;;;0.20;0.20;;;15.50;98.00;;;;;;4825410;29;20052;-89
2023/06/16 04:21:36;;;;;;;0.20;0.20;;;15.20;98.00;;;;;;4827040;29;20049;-91
2023/06/16 04:24:02;;;;;;;0.20;0.20;;;15.20;98.10;;;;;;4838085;29;20077;-90
2023/06/16 04:26:28;;;;;;;0.15;0.15;;;15.30;98.20;;;;;;4854819;29;20125;-91
2023/06/16 04:28:55;;;;;;;0.20;0.20;;;15.30;98.20;;;;;;4839348;29;20060;-90
2023/06/16 04:31:28;;;;;;;0.20;0.20;;;15.30;98.20;;;;;;4846141;29;20042;-91
2023/06/16 04:33:56;;;;;;;0.20;0.20;;;15.40;98.20;;;;;;4826459;29;20065;-91
2023/06/16 04:36:22;;;;;;;0.15;0.15;;;15.40;98.30;;;;;;4815932;29;20090;-90
2023/06/16 04:38:48;;;;;;;0.20;0.20;;;15.50;98.30;;;;;;4824404;29;20103;-92
2023/06/16 04:41:14;;;;;;;0.20;0.20;;;15.50;98.30;;;;;;4835530;29;20043;-92
2023/06/16 04:43:39;;;;;;;0.10;0.10;;;15.60;98.40;;;;;;4831703;29;20053;-92
2023/06/16 04:46:05;;;;;;;0.17;0.17;;;15.60;98.50;;;;;;4827722;29;20423;-91
2023/06/16 04:48:31;;;;;;;0.20;0.20;;;15.70;98.70;;;;;;4825531;29;20441;-91
2023/06/16 04:50:59;;;;;;;0.10;0.10;;;15.70;98.80;;;;;;4841020;29;20426;-91
2023/06/16 04:53:25;;;;;;;0.20;0.20;;;15.70;98.90;;;;;;4829071;29;20081;-91
2023/06/16 04:55:51;;;;;;;0.10;0.10;;;15.80;99.10;;;;;;4818205;29;20507;-92
2023/06/16 04:58:16;;;;;;;0.20;0.20;;;15.90;99.20;;;;;;4816383;29;20061;-91
2023/06/16 05:00:43;;;;;;;0.20;0.20;;;15.90;99.30;;;;;;4839615;29;20129;-91
2023/06/16 05:03:09;;;;;;;0.20;0.20;;;16.00;99.20;;;;;;4826081;29;20050;-91
2023/06/16 05:05:34;;;;;;;0.20;0.20;;;16.00;99.40;;;;;;4823306;29;20046;-92
2023/06/16 05:08:00;;;;;;;0.13;0.13;;;16.10;99.50;;;;;;4841372;29;20098;-91
2023/06/16 05:10:26;;;;;;;0.20;0.20;;;16.20;99.50;;;;;;4824579;29;20058;-92
2023/06/16 05:12:52;;;;;;;0.20;0.20;;;16.20;99.60;;;;;;4839190;29;20121;-91
2023/06/16 05:15:17;;;;;;;0.10;0.10;;;16.30;99.70;;;;;;4842341;29;20070;-92
2023/06/16 05:17:44;;;;;;;0.20;0.20;;;16.30;99.60;;;;;;4831777;29;20052;-92
2023/06/16 05:20:10;;;;;;;0.20;0.20;;;16.40;99.60;;;;;;4829136;29;20061;-90
2023/06/16 05:22:36;;;;;;;0.10;0.10;;;16.50;99.70;;;;;;4831220;29;20049;-91
2023/06/16 05:25:02;;;;;;;0.20;0.20;;;16.60;99.80;;;;;;4834624;29;20045;-91
2023/06/16 05:27:27;;;;;;;0.20;0.20;;;16.60;99.70;;;;;;4848580;29;20407;-91
2023/06/16 05:29:54;;;;;;;0.20;0.20;;;16.70;99.70;;;;;;4849106;29;20432;-91
2023/06/16 05:32:21;;;;;;;0.20;0.20;;;16.80;99.80;;;;;;4849805;29;20060;-89
2023/06/16 05:34:51;;;;;;;0.20;0.20;;;16.80;99.80;;;;;;4852840;29;20046;-89
2023/06/16 05:37:18;;;;;;;0.20;0.20;;;16.90;99.90;;;;;;4854755;29;20487;-89
2023/06/16 05:39:47;;;;;;;0.20;0.20;;;17.00;99.90;;;;;;4836196;29;20137;-88
2023/06/16 05:42:14;;;;;;;0.20;0.20;;;17.00;99.90;;;;;;4821567;29;20495;-89
2023/06/16 05:44:44;;;;;;;0.20;0.20;;;17.10;99.90;;;;;;4847148;29;20046;-88
2023/06/16 05:47:10;;;;;;;0.20;0.20;;;17.10;99.90;;;;;;4830333;29;20054;-89
2023/06/16 05:49:36;;;;;;;0.20;0.20;;;17.20;99.90;;;;;;4829718;29;20102;-92
2023/06/16 05:52:04;;;;;;;0.20;0.20;;;17.20;99.90;;;;;;4832987;29;20042;-88
2023/06/16 05:54:29;;;;;;;0.17;0.17;;;17.30;99.90;;;;;;4830101;29;20053;-88
2023/06/16 05:56:56;;;;;;;0.10;0.10;;;17.30;99.90;;;;;;4844459;29;20583;-90
2023/06/16 05:59:21;;;;;;;0.20;0.20;;;17.40;99.90;;;;;;4831786;29;20106;-91
2023/06/16 06:01:49;;;;;;;0.10;0.10;;;17.50;99.90;;;;;;4846280;29;20057;-91
2023/06/16 06:04:15;;;;;;;0.10;0.10;;;17.50;99.90;;;;;;4828824;29;20042;-86
2023/06/16 06:06:41;;;;;;;0.20;0.20;;;17.60;99.90;;;;;;4829288;29;20050;-87
2023/06/16 06:09:06;;;;;;;0.10;0.10;;;17.70;99.90;;;;;;4829007;29;20065;-86
2023/06/16 06:11:32;;;;;;;0.20;0.20;;;17.70;99.90;;;;;;4828548;29;20049;-88
2023/06/16 06:13:57;;;;;;;0.20;0.20;;;17.80;99.90;;;;;;4827534;29;20406;-88
2023/06/16 06:16:23;;;;;;;0.20;0.20;;;17.80;99.90;;;;;;4828353;29;20058;-88
2023/06/16 06:18:49;;;;;;;0.20;0.20;;;17.90;99.90;;;;;;4823384;29;20487;-90
2023/06/16 06:21:15;;;;;;;0.15;0.15;;;17.90;99.90;;;;;;4823336;29;20046;-88
2023/06/16 06:23:41;;;;;;;0.10;0.10;;;18.00;99.90;;;;;;4836461;29;20062;-86
2023/06/16 06:26:07;;;;;;;0.17;0.17;;;18.10;99.90;;;;;;4827609;29;20038;-90
2023/06/16 06:28:32;;;;;;;0.10;0.10;;;18.00;99.90;;;;;;4842180;29;20517;-87
2023/06/16 06:30:58;;;;;;;0.10;0.10;;;18.20;99.90;;;;;;4838225;29;20053;-89
2023/06/16 06:33:24;;;;;;;0.20;0.20;;;18.20;99.90;;;;;;4823741;29;20050;-89
2023/06/16 06:35:50;;;;;;;0.20;0.20;;;18.30;99.90;;;;;;4840873;29;20089;-80
2023/06/16 06:38:15;;;;;;;0.20;0.20;;;18.40;99.90;;;;;;4836962;29;20073;-80
2023/06/16 06:40:41;;;;;;;0.20;0.20;;;18.40;99.90;;;;;;4824530;29;20487;-80
2023/06/16 06:43:07;;;;;;;0.20;0.20;;;18.50;99.90;;;;;;4842166;29;20054;-79
2023/06/16 06:45:32;;;;;;;0.20;0.20;;;18.50;99.90;;;;;;4837076;29;20045;-79
2023/06/16 06:47:58;;;;;;;0.20;0.20;;;18.60;99.90;;;;;;4838913;29;20455;-78
2023/06/16 06:50:23;;;;;;;0.20;0.20;;;18.60;99.90;;;;;;4822927;29;20448;-79
2023/06/16 06:52:49;;;;;;;0.20;0.20;;;18.70;99.90;;;;;;4822491;29;20096;-79
2023/06/16 06:55:15;;;;;;;0.20;0.20;;;18.80;99.90;;;;;;4844319;29;20121;-78
2023/06/16 06:57:42;;;;;;;0.20;0.20;;;18.80;99.90;;;;;;4836345;29;20041;-79
2023/06/16 07:00:10;;;;;;;0.20;0.20;;;18.90;99.90;;;;;;4822285;29;20474;-78
2023/06/16 07:02:35;;;;;;;0.20;0.20;;;18.90;99.90;;;;;;4841464;29;20193;-78
2023/06/16 07:05:02;;;;;;;0.20;0.20;;;19.00;99.90;;;;;;4820566;29;20034;-79
2023/06/16 07:07:28;;;;;;;0.20;0.20;;;19.10;99.80;;;;;;4826464;29;20050;-78
2023/06/16 07:09:53;;;;;;;0.20;0.20;;;19.10;99.60;;;;;;4806889;29;20050;-79
2023/06/16 07:12:19;;;;;;;0.25;0.25;;;19.20;99.40;;;;;;4822156;29;20050;-79
2023/06/16 07:14:49;;;;;;;0.20;0.20;;;19.30;99.20;;;;;;4839617;29;20050;-78
2023/06/16 07:17:15;;;;;;;0.20;0.20;;;19.30;98.90;;;;;;4820660;29;20084;-80
2023/06/16 07:19:40;;;;;;;0.20;0.20;;;19.30;98.50;;;;;;4835329;29;20081;-78
2023/06/16 07:22:06;;;;;;;0.20;0.20;;;19.30;98.40;;;;;;4819580;29;20096;-79
2023/06/16 07:24:32;;;;;;;0.20;0.20;;;19.30;98.10;;;;;;4819720;29;20064;-80
2023/06/16 07:26:59;;;;;;;0.20;0.20;;;19.50;98.00;;;;;;4823102;29;20049;-79
2023/06/16 07:29:26;;;;;;;0.20;0.20;;;19.50;98.00;;;;;;4816579;29;20050;-79
2023/06/16 07:31:51;;;;;;;0.20;0.20;;;19.60;97.80;;;;;;4837342;29;20112;-80
2023/06/16 07:34:18;;;;;;;0.20;0.20;;;19.60;97.70;;;;;;4820900;29;20106;-79
2023/06/16 07:36:43;;;;;;;0.20;0.20;;;19.70;97.70;;;;;;4836372;29;20482;-79
2023/06/16 07:39:10;;;;;;;0.10;0.10;;;19.70;97.50;;;;;;4822252;29;20052;-80
2023/06/16 07:41:36;;;;;;;0.20;0.20;;;19.80;97.40;;;;;;4823577;29;20054;-79
2023/06/16 07:44:01;;;;;;;0.20;0.20;;;19.80;97.00;;;;;;4822968;29;20057;-79
2023/06/16 07:46:27;;;;;;;0.20;0.20;;;19.80;96.80;;;;;;4820446;29;20057;-79
2023/06/16 07:48:53;;;;;;;0.20;0.20;;;20.30;98.70;;;;;;4817130;29;20072;-80
2023/06/16 07:51:20;;;;;;;0.20;0.20;;;19.90;97.70;;;;;;4814647;29;20049;-80
2023/06/16 07:53:46;;;;;;;0.20;0.20;;;20.00;97.10;;;;;;4815285;29;20062;-78
2023/06/16 07:56:12;;;;;;;0.20;0.20;;;20.10;96.50;;;;;;4834771;29;20121;-79
2023/06/16 07:58:38;;;;;;;0.20;0.20;;;20.00;96.00;;;;;;4839245;29;20139;-78
2023/06/16 08:01:04;;;;;;;0.20;0.20;;;20.00;95.80;;;;;;4815595;29;20076;-78
2023/06/16 08:03:30;;;;;;;0.10;0.10;;;20.00;94.00;;;;;;4811801;29;20053;-80
2023/06/16 08:05:57;;;;;;;0.20;0.20;;;20.00;93.20;;;;;;4818325;29;20076;-78
2023/06/16 08:08:27;;;;;;;0.20;0.20;;;20.10;93.00;;;;;;4832115;29;20223;-78
2023/06/16 08:10:55;;;;;;;0.20;0.20;;;20.10;92.60;;;;;;4815497;29;20388;-79
2023/06/16 08:13:21;;;;;;;0.20;0.20;;;20.10;92.20;;;;;;4830288;29;20047;-80
2023/06/16 08:15:47;;;;;;;0.20;0.20;;;20.20;91.40;;;;;;4842724;29;20079;-79
2023/06/16 08:18:13;;;;;;;0.10;0.10;;;20.20;90.40;;;;;;4812780;29;20046;-80
2023/06/16 08:20:38;;;;;;;0.20;0.20;;;20.20;90.70;;;;;;4816464;29;20045;-78
2023/06/16 08:23:04;;;;;;;0.20;0.20;;;20.30;90.00;;;;;;4819790;29;20056;-78
2023/06/16 08:25:30;;;;;;;0.20;0.20;;;20.30;88.00;;;;;;4814101;29;20073;-77
2023/06/16 08:27:56;;;;;;;0.15;0.15;;;20.30;87.50;;;;;;4825538;29;20091;-78
2023/06/16 08:30:22;;;;;;;0.20;0.20;;;20.30;85.90;;;;;;4838259;29;20044;-78
2023/06/16 08:32:48;;;;;;;0.20;0.20;;;20.40;84.80;;;;;;4828736;29;20046;-78
2023/06/16 08:35:14;;;;;;;0.20;0.20;;;20.30;82.90;;;;;;4811491;29;20141;-78
2023/06/16 08:37:40;;;;;;;0.20;0.20;;;20.40;82.10;;;;;;4831837;29;20703;-79
2023/06/16 08:40:08;;;;;;;0.20;0.20;;;20.40;82.30;;;;;;4834498;29;20049;-79
2023/06/16 08:42:36;;;;;;;0.20;0.20;;;20.40;82.00;;;;;;4831863;29;20055;-78
2023/06/16 08:45:03;;;;;;;0.20;0.20;;;20.50;81.50;;;;;;4812445;29;20057;-77
2023/06/16 08:47:29;;;;;;;0.20;0.20;;;20.50;81.40;;;;;;4814272;29;20073;-79
2023/06/16 08:49:56;;;;;;;0.10;0.10;;;20.50;80.40;;;;;;4833574;29;20042;-78
2023/06/16 08:52:26;;;;;;;0.20;0.20;;;20.50;79.90;;;;;;4829300;29;20085;-78
2023/06/16 08:54:57;;;;;;;0.20;0.20;;;20.60;80.40;;;;;;4825823;29;20103;-78
2023/06/16 08:57:24;;;;;;;0.20;0.20;;;20.60;80.70;;;;;;4834377;29;20046;-79
2023/06/16 08:59:55;;;;;;;0.20;0.20;;;20.60;80.70;;;;;;4817165;29;20061;-79
2023/06/16 09:02:21;;;;;;;0.20;0.20;;;20.70;80.10;;;;;;4817671;29;20526;-78
2023/06/16 09:04:47;;;;;;;0.20;0.20;;;20.70;80.80;;;;;;4820250;29;20128;-79
2023/06/16 09:07:19;;;;;;;0.10;0.10;;;20.80;81.30;;;;;;4822662;29;20041;-79
2023/06/16 09:09:48;;;;;;;0.20;0.20;;;20.90;81.50;;;;;;4855185;29;20133;-79
2023/06/16 09:12:14;;;;;;;0.20;0.20;;;20.90;81.70;;;;;;4843915;29;20096;-79
2023/06/16 09:14:42;;;;;;;0.20;0.20;;;21.00;81.40;;;;;;4812749;29;20077;-77
2023/06/16 09:17:09;;;;;;;0.20;0.20;;;21.00;80.20;;;;;;4821603;29;20050;-78
2023/06/16 09:19:50;;;;;;;0.20;0.20;;;21.10;80.80;;;;;;4852843;29;20085;-79
2023/06/16 09:22:18;;;;;;;0.25;0.25;;;21.10;80.50;;;;;;4837786;29;20054;-80
2023/06/16 09:24:51;;;;;;;0.20;0.20;;;21.10;80.30;;;;;;4831148;29;20387;-79
2023/06/16 09:27:18;;;;;;;0.20;0.20;;;21.20;79.80;;;;;;4819702;29;20128;-78
2023/06/16 09:29:50;;;;;;;0.20;0.20;;;21.20;79.70;;;;;;4818899;29;20140;-79
2023/06/16 09:32:16;;;;;;;0.10;0.10;;;21.20;79.70;;;;;;4831623;29;20046;-79
2023/06/16 09:34:43;;;;;;;0.20;0.20;;;21.20;80.30;;;;;;4815143;29;20054;-80
2023/06/16 09:37:12;;;;;;;0.20;0.20;;;21.20;79.70;;;;;;4837211;29;20077;-79
2023/06/16 09:39:38;;;;;;;0.20;0.20;;;21.30;79.70;;;;;;4857826;29;20525;-81
2023/06/16 09:42:11;;;;;;;0.20;0.20;;;21.30;79.80;;;;;;4845905;29;20081;-80
2023/06/16 09:44:37;;;;;;;0.20;0.20;;;21.30;79.90;;;;;;4836960;29;20439;-81
2023/06/16 09:47:02;;;;;;;0.20;0.20;;;21.40;79.50;;;;;;4821011;29;20046;-82
2023/06/16 09:49:29;;;;;;;0.20;0.20;;;21.40;79.40;;;;;;4820736;29;20130;-80
2023/06/16 09:51:58;;;;;;;0.20;0.20;;;21.50;78.70;;;;;;4823593;29;20046;-81
2023/06/16 09:54:27;;;;;;;0.20;0.20;;;21.50;78.70;;;;;;4837419;29;20048;-80
2023/06/16 09:56:56;;;;;;;0.20;0.20;;;21.50;78.50;;;;;;4827693;29;20053;-79
2023/06/16 09:59:23;;;;;;;0.15;0.15;;;21.50;78.00;;;;;;4836037;29;20058;-80
2023/06/16 10:01:52;;;;;;;0.17;0.17;;;21.50;78.00;;;;;;4817880;29;20045;-82
2023/06/16 10:04:20;;;;;;;0.20;0.20;;;21.60;77.50;;;;;;4835382;29;20050;-82
2023/06/16 10:06:56;;;;;;;0.20;0.20;;;21.60;77.60;;;;;;4839305;29;20051;-81
2023/06/16 10:09:27;;;;;;;0.20;0.20;;;21.60;77.60;;;;;;4823884;29;20284;-83
2023/06/16 10:11:55;;;;;;;0.20;0.20;;;21.70;77.50;;;;;;4813537;29;20094;-82
2023/06/16 10:14:26;;;;;;;0.13;0.13;;;21.70;77.40;;;;;;4825852;29;20140;-82
2023/06/16 10:16:54;;;;;;;;;;;21.70;77.20;;;;;;4822069;29;20486;-83
2023/06/16 10:19:23;;;;;;;0.28;0.28;;;21.80;76.70;;;;;;4840517;29;19929;-82
2023/06/16 10:21:53;;;;;;;0.20;0.20;;;21.80;75.90;;;;;;4823993;29;20125;-81
2023/06/16 10:24:19;;;;;;;0.20;0.20;;;21.80;75.70;;;;;;4839423;29;20469;-82
2023/06/16 10:26:46;;;;;;;0.20;0.20;;;21.90;75.00;;;;;;4820510;29;20415;-86
2023/06/16 10:29:16;;;;;;;0.20;0.20;;;21.90;75.00;;;;;;4835803;29;20042;-83
2023/06/16 10:31:43;;;;;;;0.20;0.20;;;21.90;74.70;;;;;;4813203;29;20049;-83
2023/06/16 10:34:19;;;;;;;0.20;0.20;;;22.00;75.20;;;;;;4840119;29;20064;-83
2023/06/16 10:36:48;;;;;;;0.20;0.20;;;22.00;75.00;;;;;;4838016;29;20050;-86
2023/06/16 10:39:16;;;;;;;0.20;0.20;;;22.00;74.60;;;;;;4815369;29;20406;-83
2023/06/16 10:41:58;;;;;;;0.20;0.20;;;22.10;74.40;;;;;;4834517;29;20057;-83
2023/06/16 10:44:31;;;;;;;0.10;0.10;;;22.10;74.00;;;;;;4817924;29;20566;-84
2023/06/16 10:47:09;;;;;;;0.20;0.20;;;22.20;74.10;;;;;;4821296;29;20041;-85
2023/06/16 10:50:02;;;;;;;0.10;0.10;;;22.20;74.20;;;;;;4822570;29;20152;-84
2023/06/16 10:52:28;;;;;;;0.10;0.10;;;22.30;74.50;;;;;;4810107;29;20072;-84
2023/06/16 10:54:55;;;;;;;0.10;0.10;;;22.30;74.90;;;;;;4857880;29;20124;-83
2023/06/16 10:57:22;;;;;;;0.28;0.28;;;22.40;74.70;;;;;;4820318;29;20042;-84
2023/06/16 11:00:06;;;;;;;0.20;0.20;;;22.50;74.80;;;;;;4838497;29;20140;-87
2023/06/16 11:02:34;;;;;;;0.17;0.17;;;22.50;74.20;;;;;;4820029;29;20057;-87
2023/06/16 11:05:10;;;;;;;0.20;0.20;;;22.50;73.30;;;;;;4811656;29;20038;-92
2023/06/16 11:07:40;;;;;;;0.20;0.20;;;22.60;72.80;;;;;;4816368;29;20057;-88
2023/06/16 11:10:11;;;;;;;0.20;0.20;;;22.60;72.60;;;;;;4824279;29;20079;-88
2023/06/16 11:12:37;;;;;;;0.20;0.20;;;22.60;72.50;;;;;;4841484;29;20513;-91
2023/06/16 11:15:06;;;;;;;0.20;0.20;;;22.60;71.80;;;;;;4838286;29;20046;-88
2023/06/16 11:17:33;;;;;;;0.30;0.30;;;22.70;70.90;;;;;;4823814;29;20514;-92
2023/06/16 11:20:01;;;;;;;0.20;0.20;;;22.70;70.30;;;;;;4835219;29;20038;-89
2023/06/16 11:22:33;;;;;;;0.20;0.20;;;22.70;70.00;;;;;;4840981;29;20073;-91
2023/06/16 11:25:00;;;;;;;0.17;0.17;;;22.80;70.30;;;;;;4825123;29;20503;-90
2023/06/16 11:27:26;;;;;;;0.20;0.20;;;22.90;69.70;;;;;;4828446;29;20527;-88
2023/06/16 11:29:54;;;;;;;0.20;0.20;;;22.90;69.80;;;;;;4845176;29;20056;-89
2023/06/16 11:32:28;;;;;;;0.13;0.13;;;23.00;69.60;;;;;;4825699;29;20064;-89
2023/06/16 11:34:57;;;;;;;0.20;0.20;;;23.10;69.50;;;;;;4821895;29;20081;-92
2023/06/16 11:37:50;;;;;;;0.20;0.20;;;23.10;69.30;;;;;;4824402;29;20133;-86
2023/06/16 11:40:27;;;;;;;0.15;0.15;;;23.20;68.90;;;;;;4816577;29;20038;-85
2023/06/16 11:42:55;;;;;;;0.20;0.20;;;23.30;69.10;;;;;;4823553;29;20042;-88
2023/06/16 11:45:21;;;;;;;0.17;0.17;;;23.30;69.30;;;;;;4838238;29;20054;-86
2023/06/16 11:47:47;;;;;;;0.20;0.20;;;23.40;69.70;;;;;;4818441;29;20049;-86
2023/06/16 11:50:15;;;;;;;0.15;0.15;;;23.50;68.70;;;;;;4819254;29;20084;-87
2023/06/16 11:52:41;;;;;;;0.20;0.20;;;23.60;67.90;;;;;;4823490;29;20407;-86
2023/06/16 11:55:07;;;;;;;0.20;0.20;;;23.60;67.40;;;;;;4814116;29;20038;-88
2023/06/16 11:57:37;;;;;;;0.20;0.20;;;23.70;67.30;;;;;;4819403;29;20436;-89
2023/06/16 12:00:04;;;;;;;0.20;0.20;;;23.70;66.50;;;;;;4841275;29;20267;-87
2023/06/16 12:02:31;;;;;;;0.20;0.20;;;23.70;67.00;;;;;;4822336;29;20137;-88
2023/06/16 12:04:57;;;;;;;0.20;0.20;;;23.80;67.00;;;;;;4817803;29;20154;-88
2023/06/16 12:07:23;;;;;;;0.20;0.20;;;23.90;66.90;;;;;;4841824;29;20121;-88
2023/06/16 12:09:55;;;;;;;0.20;0.20;;;24.00;66.40;;;;;;4839341;29;20423;-88
2023/06/16 12:12:21;;;;;;;0.35;0.35;;;24.10;65.90;;;;;;4836257;29;20086;-88
2023/06/16 12:14:47;;;;;;;0.20;0.20;;;24.10;65.80;;;;;;4833532;29;20092;-89
2023/06/16 12:17:12;;;;;;;0.20;0.20;;;24.20;64.40;;;;;;4836600;29;20086;-86
2023/06/16 12:19:38;;;;;;;0.20;0.20;;;24.20;64.80;;;;;;4816140;29;20486;-87
2023/06/16 12:22:05;;;;;;;0.20;0.20;;;24.30;64.50;;;;;;4816140;29;20053;-88
2023/06/16 12:24:31;;;;;;;0.20;0.20;;;24.30;64.10;;;;;;4820645;29;20050;-87
2023/06/16 12:26:57;;;;;;;0.20;0.20;;;24.40;64.40;;;;;;4837936;29;20550;-87
2023/06/16 12:29:26;;;;;;;0.30;0.30;;;24.50;64.10;;;;;;4838895;29;20042;-89
2023/06/16 12:31:56;;;;;;;0.20;0.20;;;24.50;64.20;;;;;;4813487;29;20149;-89
2023/06/16 12:34:28;;;;;;;0.20;0.20;;;24.60;64.60;;;;;;4821992;29;20061;-87
2023/06/16 12:36:54;;;;;;;0.20;0.20;;;24.70;64.70;;;;;;4824618;29;20064;-86
2023/06/16 12:39:20;;;;;;;0.20;0.20;;;24.70;64.40;;;;;;4821693;29;20097;-87
2023/06/16 12:41:56;;;;;;;0.20;0.20;;;24.80;64.40;;;;;;4824104;29;20092;-84
2023/06/16 12:44:21;;;;;;;0.20;0.20;;;24.80;64.80;;;;;;4814173;29;20054;-88
2023/06/16 12:46:47;;;;;;;0.20;0.20;;;24.90;64.30;;;;;;4815935;29;20093;-85
2023/06/16 12:49:13;;;;;;;0.20;0.20;;;24.90;64.20;;;;;;4804996;29;20138;-86